Station Historical Data
Daily Summary for June 29, 2017 Units:  Metric    English   Both
« Previous Day
Next Day »
Daily Weekly Monthly Yearly Custom
  High: Low: Average:
Temperature: 27.1 °C 20.9 °C 22.8 °C
Dew Point: 23.3 °C 17.4 °C 19.7 °C
Humidity: 94% 69% 83%
Wind Speed: 8.2km/h 0km/h 5.5km/h
Wind Gust: 8.2km/h - -
Wind- - SW
Pressure: 1021.2 hPa 1018.2 hPa -
Precipitation: 2.03 mm    
Historical Graphs
 
 
Tabular Data for June 29, 2017
Time Temperature Dew Point Pressure Wind Wind Speed Wind Gust Humidity Rainfall Rate (Hourly) Conditions
00:00 22.7 °C 18.6 °C 1020.2 hPa NW 8.2 km/h   78% 0 mm CLR
00:05 22.7 °C 18.6 °C 1020.2 hPa Calm     78% 0 mm CLR
00:10 22.6 °C 18.6 °C 1019.9 hPa Calm     78% 0 mm CLR
00:15 22.6 °C 18.5 °C 1020.2 hPa Calm     78% 0 mm CLR
00:20 22.5 °C 18.4 °C 1020.2 hPa Calm     78% 0 mm CLR
00:25 22.4 °C 18.4 °C 1019.9 hPa Calm     78% 0 mm CLR
00:33 22.3 °C 18.5 °C 1019.9 hPa NW 8.2 km/h   79% 0 mm CLR
00:38 22.3 °C 18.4 °C 1020.2 hPa NW 8.2 km/h   79% 0 mm CLR
00:44 22.2 °C 18.4 °C 1019.9 hPa NW 8.2 km/h   79% 0 mm CLR
00:49 22.2 °C 18.6 °C 1019.9 hPa NW 8.2 km/h   80% 0 mm CLR
00:54 22.2 °C 18.4 °C 1019.9 hPa NW 8.2 km/h   79% 0 mm CLR
00:59 22.2 °C 18.4 °C 1019.9 hPa NW 8.2 km/h   79% 0 mm CLR
01:04 22.2 °C 18.4 °C 1019.9 hPa NW 8.2 km/h   79% 0 mm CLR
01:09 22.2 °C 18.4 °C 1019.9 hPa NW 8.2 km/h   79% 0 mm CLR
01:14 22.2 °C 18.6 °C 1019.9 hPa NW 8.2 km/h   80% 0 mm CLR
01:19 22.2 °C 18.3 °C 1019.9 hPa NW 8.2 km/h   79% 0 mm CLR
01:24 22.1 °C 18.3 °C 1019.9 hPa NW 8.2 km/h   79% 0 mm CLR
01:29 22.1 °C 18.3 °C 1019.9 hPa NW 8.2 km/h   79% 0 mm CLR
01:34 22.1 °C 18.5 °C 1020.2 hPa NW 8.2 km/h   80% 0 mm CLR
01:40 22.1 °C 18.3 °C 1020.2 hPa NW 8.2 km/h   79% 0 mm CLR
01:45 22.1 °C 18.2 °C 1019.9 hPa Calm     79% 0 mm CLR
01:50 22 °C 18.4 °C 1019.9 hPa Calm     80% 0 mm CLR
01:55 22 °C 18.2 °C 1019.9 hPa Calm     79% 0 mm CLR
02:00 22.1 °C 18.2 °C 1020.2 hPa Calm     79% 0 mm CLR
02:05 22.1 °C 18.1 °C 1020.2 hPa Calm   1.6 km/h 78% 0 mm CLR
02:10 22.3 °C 18.3 °C 1020.2 hPa Calm   1.6 km/h 78% 0 mm CLR
02:15 22.4 °C 18.2 °C 1020.2 hPa Calm   1.6 km/h 77% 0 mm CLR
02:20 22.5 °C 18.3 °C 1019.9 hPa Calm   1.6 km/h 77% 0 mm CLR
02:25 22.6 °C 18.1 °C 1020.2 hPa Calm   1.6 km/h 76% 0 mm CLR
02:30 22.6 °C 18.2 °C 1020.2 hPa Calm   1.6 km/h 76% 0 mm CLR
02:35 22.6 °C 18.2 °C 1020.2 hPa Calm   3.2 km/h 76% 0 mm CLR
02:40 22.6 °C 18.2 °C 1020.2 hPa Calm     76% 0 mm CLR
02:45 22.6 °C 18.2 °C 1020.2 hPa NNW 8.2 km/h 8.2 km/h 76% 0 mm CLR
02:50 22.6 °C 18.1 °C 1020.2 hPa Calm   1.6 km/h 76% 0 mm CLR
02:55 22.5 °C 18.1 °C 1020.2 hPa Calm   1.6 km/h 76% 0 mm CLR
03:00 22.4 °C 18.2 °C 1020.2 hPa Calm   1.6 km/h 77% 0 mm CLR
03:05 22.4 °C 18.2 °C 1020.2 hPa Calm     77% 0 mm CLR
03:10 22.3 °C 18.1 °C 1020.2 hPa Calm     77% 0 mm CLR
03:15 22.2 °C 18.2 °C 1020.2 hPa Calm     78% 0 mm CLR
03:20 22.2 °C 17.9 °C 1020.2 hPa Calm     77% 0 mm CLR
03:25 22.1 °C 18.1 °C 1020.2 hPa Calm     78% 0 mm CLR
03:30 22.1 °C 18.1 °C 1020.2 hPa NNW 8.2 km/h   78% 0 mm CLR
03:35 21.4 °C 17.4 °C 1020.2 hPa NNW 8.2 km/h   78% 0 mm CLR
03:36 21.4 °C 17.4 °C 1020.2 hPa NNW 8.2 km/h   78% 0 mm CLR
03:41 21.4 °C 17.4 °C 1020.2 hPa NNW 8.2 km/h   78% 0 mm CLR
03:46 21.4 °C 17.4 °C 1019.9 hPa NNE 8.2 km/h   78% 0 mm CLR
03:51 21.4 °C 17.4 °C 1020.2 hPa North 8.2 km/h   78% 0 mm CLR
03:56 21.4 °C 17.4 °C 1020.2 hPa North 8.2 km/h   78% 0 mm CLR
04:01 21.4 °C 17.4 °C 1020.2 hPa North 8.2 km/h   78% 0 mm CLR
04:06 21.4 °C 17.4 °C 1020.5 hPa North 8.2 km/h   78% 0 mm CLR
04:11 21.4 °C 17.4 °C 1020.5 hPa North 8.2 km/h   78% 0 mm FEW
04:16 21.4 °C 17.4 °C 1020.5 hPa North 8.2 km/h   78% 0 mm FEW
04:21 21.4 °C 17.4 °C 1020.5 hPa North 8.2 km/h   78% 0 mm FEW
04:26 21.4 °C 17.4 °C 1020.5 hPa North 8.2 km/h   78% 0 mm FEW
04:31 21.4 °C 17.4 °C 1020.9 hPa North 8.2 km/h   78% 0 mm FEW
04:37 21.4 °C 17.4 °C 1020.5 hPa North 8.2 km/h   78% 0 mm FEW
04:42 21.4 °C 17.4 °C 1020.9 hPa North 8.2 km/h   78% 0 mm FEW
04:47 21.4 °C 17.4 °C 1020.9 hPa North 8.2 km/h   78% 0 mm FEW
04:52 21.4 °C 17.4 °C 1020.9 hPa North 8.2 km/h   78% 0 mm FEW
04:57 21.4 °C 17.4 °C 1020.9 hPa North 8.2 km/h   78% 0 mm FEW
05:02 21.4 °C 17.4 °C 1020.9 hPa North 8.2 km/h   78% 0 mm FEW
05:07 21.4 °C 17.4 °C 1020.9 hPa North 8.2 km/h   78% 0 mm FEW
05:12 21.4 °C 17.4 °C 1020.9 hPa North 8.2 km/h   78% 0 mm OVC
05:17 21.4 °C 17.4 °C 1020.9 hPa North 8.2 km/h   78% 0 mm OVC
05:22 21.4 °C 17.4 °C 1020.9 hPa North 8.2 km/h   78% 0 mm OVC
05:27 21.4 °C 17.4 °C 1020.9 hPa North 8.2 km/h   78% 0 mm OVC
05:32 21.4 °C 17.4 °C 1020.9 hPa North 8.2 km/h   78% 0 mm OVC
05:37 21.4 °C 17.4 °C 1020.9 hPa North 8.2 km/h   78% 0 mm OVC
05:43 21.4 °C 17.4 °C 1020.9 hPa North 8.2 km/h   78% 0 mm OVC
05:48 21.4 °C 17.4 °C 1021.2 hPa North 8.2 km/h   78% 0 mm OVC
05:53 21.4 °C 17.4 °C 1020.9 hPa North 8.2 km/h   78% 0 mm OVC
05:58 21.4 °C 17.4 °C 1021.2 hPa North 8.2 km/h   78% 0 mm OVC
06:03 21.4 °C 17.4 °C 1020.9 hPa North 8.2 km/h   78% 0 mm OVC
06:08 21.4 °C 17.4 °C 1021.2 hPa North 8.2 km/h   78% 0 mm OVC
06:13 21.4 °C 17.4 °C 1021.2 hPa North 8.2 km/h   78% 0 mm BKN
06:18 21.4 °C 17.4 °C 1020.9 hPa North 8.2 km/h   78% 0 mm BKN
06:23 21.4 °C 17.4 °C 1021.2 hPa North 8.2 km/h   78% 0 mm BKN
06:28 21.4 °C 17.4 °C 1021.2 hPa North 8.2 km/h   78% 0 mm BKN
06:33 21.4 °C 17.4 °C 1021.2 hPa North 8.2 km/h   78% 0 mm BKN
06:38 21.4 °C 17.4 °C 1021.2 hPa North 8.2 km/h   78% 0 mm BKN
06:43 21.4 °C 17.4 °C 1021.2 hPa North 8.2 km/h   78% 0 mm BKN
06:48 21.4 °C 17.4 °C 1021.2 hPa North 8.2 km/h   78% 0 mm BKN
06:53 21.4 °C 17.4 °C 1021.2 hPa North 8.2 km/h   78% 0 mm BKN
06:58 21.4 °C 17.4 °C 1021.2 hPa North 8.2 km/h   78% 0 mm BKN
07:04 21.4 °C 17.4 °C 1021.2 hPa North 8.2 km/h   78% 0 mm BKN
07:09 21.4 °C 17.4 °C 1021.2 hPa North 8.2 km/h   78% 0 mm BKN
07:14 21.4 °C 17.4 °C 1021.2 hPa North 8.2 km/h   78% 0 mm BKN
07:17 21.4 °C 17.4 °C 1021.2 hPa North 8.2 km/h   78% 0 mm BKN
07:22 21.4 °C 17.4 °C 1020.9 hPa North 8.2 km/h   78% 0 mm BKN
07:27 21.4 °C 17.4 °C 1021.2 hPa North 8.2 km/h   78% 0 mm BKN
07:32 21.4 °C 17.4 °C 1020.9 hPa North 8.2 km/h   78% 0 mm BKN
07:37 21.4 °C 17.4 °C 1020.9 hPa North 8.2 km/h   78% 0 mm BKN
07:42 21.4 °C 17.4 °C 1020.9 hPa North 8.2 km/h   78% 0 mm BKN
07:47 21.7 °C 19.4 °C 1020.9 hPa NNW 8.2 km/h   87% 0 mm BKN
07:52 21.9 °C 19.5 °C 1020.9 hPa NNW 8.2 km/h   86% 0 mm CLR
07:58 22.1 °C 19.7 °C 1020.9 hPa NNW 8.2 km/h   86% 0 mm CLR
08:03 22.2 °C 19.6 °C 1020.9 hPa NW 8.2 km/h   85% 0 mm CLR
08:08 22.3 °C 19.9 °C 1021.2 hPa NW 8.2 km/h   86% 0 mm CLR
08:13 22.4 °C 19.9 °C 1020.9 hPa NW 8.2 km/h   86% 0 mm SCT
08:18 22.4 °C 19.8 °C 1021.2 hPa NW 8.2 km/h   85% 0 mm SCT
08:23 22.5 °C 19.8 °C 1021.2 hPa NW 8.2 km/h   85% 0 mm SCT
08:28 22.6 °C 19.9 °C 1020.9 hPa NW 8.2 km/h   85% 0 mm SCT
08:33 22.6 °C 20.1 °C 1021.2 hPa NW 8.2 km/h   86% 0 mm SCT
08:38 22.6 °C 19.9 °C 1021.2 hPa NW 8.2 km/h   85% 0 mm SCT
08:44 22.6 °C 20.1 °C 1021.2 hPa NW 8.2 km/h   86% 0 mm SCT
08:49 22.6 °C 20.2 °C 1021.2 hPa NW 8.2 km/h   86% 0 mm SCT
08:54 22.7 °C 20.2 °C 1021.2 hPa NW 8.2 km/h   86% 0 mm SCT
08:59 22.7 °C 20.1 °C 1021.2 hPa NNE 8.2 km/h   85% 0 mm SCT
09:04 22.8 °C 20.3 °C 1021.2 hPa NNW 8.2 km/h   86% 0 mm SCT
09:09 22.8 °C 20.4 °C 1021.2 hPa WNW 8.2 km/h   86% 0 mm SCT
09:14 22.9 °C 20.5 °C 1020.9 hPa WSW 8.2 km/h   86% 0 mm OVC
09:19 23 °C 20.6 °C 1020.9 hPa West 8.2 km/h   86% 0 mm OVC
09:24 23.1 °C 20.7 °C 1021.2 hPa WNW 8.2 km/h   86% 0 mm OVC
09:29 23.2 °C 20.5 °C 1021.2 hPa WNW 8.2 km/h   85% 0 mm OVC
09:34 23.2 °C 20.5 °C 1021.2 hPa WSW 8.2 km/h 8.2 km/h 85% 0 mm OVC
09:39 23.2 °C 20.5 °C 1021.2 hPa WNW 8.2 km/h 8.2 km/h 85% 0 mm OVC
09:45 23.3 °C 20.6 °C 1020.9 hPa NW 8.2 km/h 8.2 km/h 85% 0 mm OVC
09:50 23.3 °C 20.5 °C 1020.9 hPa Calm   1.6 km/h 84% 0 mm OVC
09:55 23.4 °C 20.6 °C 1020.9 hPa Calm   1.6 km/h 84% 0 mm OVC
10:00 23.5 °C 20.7 °C 1020.9 hPa Calm   1.6 km/h 84% 0 mm OVC
10:05 23.7 °C 20.6 °C 1020.9 hPa NW 8.2 km/h 8.2 km/h 83% 0 mm OVC
10:10 23.6 °C 20.6 °C 1020.9 hPa Calm   3.2 km/h 83% 0 mm OVC
10:15 23.7 °C 20.9 °C 1020.9 hPa Calm   1.6 km/h 84% 0 mm OVC
10:20 23.9 °C 20.9 °C 1020.9 hPa Calm   1.6 km/h 83% 0 mm OVC
10:25 24.1 °C 20.8 °C 1020.9 hPa Calm     82% 0 mm OVC
10:30 24.1 °C 21.1 °C 1020.9 hPa Calm   3.2 km/h 83% 0 mm OVC
10:35 24.3 °C 21.2 °C 1020.9 hPa NW 8.2 km/h   83% 0 mm OVC
10:40 24.6 °C 21.3 °C 1020.9 hPa Calm   3.2 km/h 82% 0 mm OVC
10:45 24.9 °C 21.4 °C 1020.9 hPa NNW 8.2 km/h   81% 0 mm OVC
10:50 24.9 °C 21.2 °C 1020.5 hPa Calm   1.6 km/h 80% 0 mm OVC
10:55 24.8 °C 21.2 °C 1020.5 hPa Calm   1.6 km/h 80% 0 mm OVC
11:00 24.8 °C 21.3 °C 1020.5 hPa Calm   1.6 km/h 81% 0 mm OVC
11:05 25 °C 21.3 °C 1020.5 hPa Calm   1.6 km/h 80% 0 mm OVC
11:10 25.2 °C 21.4 °C 1020.9 hPa Calm   1.6 km/h 80% 0 mm OVC
11:15 25.5 °C 21.6 °C 1020.5 hPa Calm   1.6 km/h 79% 0 mm OVC
11:20 25.8 °C 21.7 °C 1020.5 hPa Calm   1.6 km/h 78% 0 mm OVC
11:25 25.8 °C 21.2 °C 1020.5 hPa Calm   1.6 km/h 76% 0 mm OVC
11:30 25.8 °C 21.7 °C 1020.5 hPa North 8.2 km/h 8.2 km/h 78% 0 mm OVC
11:35 25.9 °C 21.6 °C 1020.5 hPa Calm   3.2 km/h 77% 0 mm OVC
11:40 25.9 °C 21.8 °C 1020.5 hPa Calm   1.6 km/h 78% 0 mm OVC
11:45 26.1 °C 21.8 °C 1020.5 hPa WNW 1.6 km/h 4.8 km/h 77% 0 mm OVC
11:50 26.2 °C 21.6 °C 1020.5 hPa Calm   3.2 km/h 76% 0 mm OVC
11:55 25.9 °C 21.4 °C 1020.5 hPa Calm   1.6 km/h 76% 0 mm BKN
12:00 25.7 °C 21.4 °C 1020.5 hPa NW 8.2 km/h   77% 0 mm BKN
12:05 25.4 °C 21.3 °C 1020.2 hPa Calm   1.6 km/h 78% 0 mm BKN
12:10 25.4 °C 21.7 °C 1020.2 hPa Calm   1.6 km/h 80% 0 mm BKN
12:15 25.2 °C 21.7 °C 1020.2 hPa NE 8.2 km/h   81% 0 mm BKN
12:20 25.3 °C 22 °C 1020.2 hPa Calm   3.2 km/h 82% 0 mm BKN
12:25 25.3 °C 21.8 °C 1020.2 hPa Calm   1.6 km/h 81% 0 mm BKN
12:30 25.4 °C 21.9 °C 1019.9 hPa Calm   1.6 km/h 81% 0 mm BKN
12:35 25.7 °C 21.7 °C 1019.9 hPa Calm   1.6 km/h 79% 0 mm BKN
12:40 25.8 °C 21.9 °C 1019.9 hPa Calm   1.6 km/h 79% 0 mm BKN
12:45 26.3 °C 22.5 °C 1019.9 hPa Calm   1.6 km/h 80% 0 mm BKN
12:50 26.8 °C 22.1 °C 1019.9 hPa Calm   1.6 km/h 75% 0 mm BKN
12:55 26.8 °C 21.3 °C 1019.9 hPa Calm   3.2 km/h 72% 0 mm BKN
13:00 26.6 °C 21.6 °C 1019.9 hPa NNW 8.2 km/h 8.2 km/h 74% 0 mm BKN
13:05 26.8 °C 22.2 °C 1019.9 hPa Calm   1.6 km/h 76% 0 mm BKN
13:10 27.1 °C 21.6 °C 1019.5 hPa Calm   1.6 km/h 72% 0 mm BKN
13:15 27.1 °C 20.9 °C 1019.5 hPa WNW 8.2 km/h 8.2 km/h 69% 0 mm BKN
13:20 27.1 °C 21.2 °C 1019.5 hPa Calm   3.2 km/h 70% 0 mm BKN
13:25 27.1 °C 21.1 °C 1019.5 hPa Calm     70% 0 mm BKN
13:30 26.9 °C 21.2 °C 1019.5 hPa Calm     71% 0 mm BKN
13:35 26.7 °C 21.5 °C 1019.5 hPa NNW 8.2 km/h 8.2 km/h 73% 0 mm BKN
13:40 26.6 °C 21.4 °C 1019.5 hPa Calm   3.2 km/h 73% 0 mm BKN
13:45 26.9 °C 21.2 °C 1019.2 hPa NW 1.6 km/h 4.8 km/h 71% 0 mm BKN
13:50 26.7 °C 21 °C 1019.2 hPa Calm   1.6 km/h 71% 0 mm BKN
13:55 26.5 °C 21.3 °C 1019.2 hPa Calm     73% 0 mm BKN
14:00 26.7 °C 21.4 °C 1019.2 hPa Calm   1.6 km/h 73% 0 mm BKN
14:05 26.6 °C 21.4 °C 1019.2 hPa WNW 8.2 km/h   73% 0 mm BKN
14:10 26.4 °C 22.1 °C 1019.2 hPa NW 8.2 km/h   77% 0 mm BKN
14:15 25.8 °C 22.1 °C 1018.8 hPa NW 8.2 km/h   80% 0 mm BKN
14:20 25.5 °C 22.4 °C 1018.8 hPa NW 8.2 km/h   83% 0 mm BKN
14:25 25.2 °C 22.7 °C 1018.8 hPa NW 8.2 km/h   86% 0 mm BKN
14:30 25.3 °C 23.2 °C 1018.8 hPa NW 8.2 km/h   88% 0 mm BKN
14:35 25.2 °C 22.8 °C 1018.8 hPa NW 8.2 km/h   87% 0 mm BKN
14:41 25.2 °C 22.8 °C 1018.5 hPa NW 8.2 km/h   87% 0.25 mm RA
14:46 25.4 °C 23.3 °C 1018.5 hPa NW 8.2 km/h   88% 0.25 mm BKN
14:48 25.4 °C 22.9 °C 1018.5 hPa NW 8.2 km/h   86% 0.25 mm BKN
14:53 25.4 °C 22.9 °C 1018.5 hPa North 8.2 km/h   86% 0.25 mm BKN
14:58 25.2 °C 22.5 °C 1018.5 hPa North 8.2 km/h   85% 0.25 mm BKN
15:03 25.1 °C 22.4 °C 1018.5 hPa North 8.2 km/h   85% 0.25 mm BKN
15:08 25.1 °C 22.3 °C 1018.5 hPa North 8.2 km/h   85% 0.25 mm BKN
15:13 25 °C 22.3 °C 1018.5 hPa North 8.2 km/h   85% 0.25 mm BKN
15:18 24.8 °C 22.3 °C 1018.5 hPa North 8.2 km/h   86% 0.25 mm BKN
15:23 24.7 °C 22.4 °C 1018.5 hPa North 8.2 km/h   87% 0.25 mm BKN
15:28 24.7 °C 22.6 °C 1018.5 hPa North 8.2 km/h   88% 0.25 mm BKN
15:33 24.7 °C 22.2 °C 1018.5 hPa North 8.2 km/h   86% 0.25 mm BKN
15:37 24.7 °C 22.2 °C 1018.5 hPa North 8.2 km/h   86% 0.25 mm BKN
15:42 24.7 °C 22.1 °C 1018.5 hPa NW 8.2 km/h 8.2 km/h 85% 0 mm BKN
15:47 24.8 °C 21.9 °C 1018.5 hPa NW 8.2 km/h   84% 0 mm BKN
15:52 24.7 °C 21.8 °C 1018.5 hPa NW 8.2 km/h   84% 0 mm BKN
15:57 24.7 °C 22 °C 1018.5 hPa NW 8.2 km/h   85% 0 mm BKN
16:02 24.7 °C 22 °C 1018.5 hPa NW 8.2 km/h   85% 0 mm BKN
16:07 24.7 °C 21.8 °C 1018.5 hPa NW 8.2 km/h   84% 0.25 mm BKN
16:12 24.9 °C 22.4 °C 1018.2 hPa NW 8.2 km/h   86% 0.25 mm OVC
16:18 25.1 °C 22.4 °C 1018.5 hPa NW 8.2 km/h   85% 0.25 mm OVC
18:47 21.1 °C 19.6 °C 1019.5 hPa NNW 8.2 km/h   91% 0.25 mm OVC
18:52 21 °C 19.5 °C 1019.5 hPa NNW 8.2 km/h   91% 0.25 mm -RA
18:57 20.9 °C 19.6 °C 1019.2 hPa NNW 8.2 km/h   92% 0.25 mm -RA
19:02 20.9 °C 19.6 °C 1019.2 hPa NNW 8.2 km/h   92% 0.25 mm -RA
19:07 20.9 °C 19.6 °C 1019.2 hPa NNW 8.2 km/h   92% 0.25 mm -RA
19:12 20.9 °C 19.6 °C 1019.2 hPa NNW 8.2 km/h   92% 0.25 mm -RA
19:17 20.9 °C 19.6 °C 1019.2 hPa NNW 8.2 km/h   92% 0.25 mm -RA
19:22 20.9 °C 19.6 °C 1019.2 hPa NNW 8.2 km/h   92% 0.25 mm -RA
19:27 21 °C 19.8 °C 1019.2 hPa NNW 8.2 km/h   93% 0.25 mm -RA
19:32 21 °C 19.8 °C 1019.2 hPa NNW 8.2 km/h   93% 0.25 mm -RA
19:37 21 °C 19.8 °C 1019.2 hPa NNW 8.2 km/h   93% 0 mm -RA
19:43 21.1 °C 19.9 °C 1019.2 hPa NNW 8.2 km/h   93% 0 mm -RA
19:48 21.1 °C 19.9 °C 1019.2 hPa NNW 8.2 km/h   93% 0 mm -RA
19:53 21.1 °C 19.9 °C 1019.5 hPa NNW 8.2 km/h   93% 0.25 mm -RA
19:58 21.1 °C 19.9 °C 1019.2 hPa NNW 8.2 km/h   93% 0.25 mm -RA
20:03 21.1 °C 19.9 °C 1019.2 hPa NNW 8.2 km/h   93% 0.25 mm -RA
20:08 21.1 °C 19.9 °C 1019.2 hPa NNW 8.2 km/h   93% 0.25 mm -RA
20:13 21.1 °C 19.9 °C 1019.2 hPa NNW 8.2 km/h   93% 0.25 mm -RA
20:18 21.1 °C 19.9 °C 1018.8 hPa NNW 8.2 km/h   93% 0.25 mm -RA
20:23 21.1 °C 19.9 °C 1018.8 hPa NNW 8.2 km/h   93% 0.25 mm -RA
20:28 21 °C 19.8 °C 1018.8 hPa NNW 8.2 km/h   93% 0.25 mm -RA
20:33 21 °C 19.8 °C 1018.8 hPa NNW 8.2 km/h   93% 0.25 mm -RA
20:38 21 °C 19.8 °C 1018.8 hPa NNW 8.2 km/h   93% 0.25 mm -RA
20:43 21.1 °C 19.9 °C 1018.8 hPa NNW 8.2 km/h   93% 0.25 mm -DZ
20:48 21.1 °C 19.9 °C 1018.8 hPa NNW 8.2 km/h   93% 0.25 mm -DZ
20:54 21.1 °C 19.9 °C 1018.8 hPa NNW 8.2 km/h   93% 0.25 mm -DZ
20:59 21.1 °C 19.9 °C 1018.8 hPa NNW 8.2 km/h   93% 0.25 mm -DZ
21:04 21.1 °C 19.9 °C 1018.8 hPa NNW 8.2 km/h   93% 0.25 mm -DZ
21:09 21.1 °C 19.9 °C 1018.8 hPa NNW 8.2 km/h   93% 0.25 mm -DZ
21:14 21.1 °C 19.9 °C 1018.8 hPa NNW 8.2 km/h   93% 0.25 mm -DZ
21:19 21.1 °C 19.9 °C 1018.8 hPa NNW 8.2 km/h   93% 0.25 mm -DZ
21:24 21.1 °C 19.9 °C 1018.8 hPa NNW 8.2 km/h   93% 0.25 mm -DZ
21:29 21.1 °C 19.9 °C 1018.8 hPa NNW 8.2 km/h   93% 0.25 mm -DZ
21:34 21.1 °C 19.9 °C 1019.2 hPa NNW 8.2 km/h   93% 0.25 mm -DZ
21:39 21.1 °C 19.9 °C 1019.2 hPa NNW 8.2 km/h   93% 0.25 mm -DZ
21:44 21.1 °C 19.9 °C 1019.2 hPa NNW 8.2 km/h 8.2 km/h 93% 0.51 mm -DZ
21:49 21.1 °C 19.9 °C 1019.2 hPa NNW 8.2 km/h   93% 0.25 mm -DZ
21:54 21.1 °C 19.9 °C 1019.5 hPa NNW 8.2 km/h   93% 0.25 mm -DZ
21:59 21.1 °C 19.9 °C 1019.5 hPa NNW 8.2 km/h   93% 0.25 mm -DZ
22:04 21.1 °C 19.9 °C 1019.5 hPa NNW 8.2 km/h   93% 0.25 mm -DZ
22:09 21.1 °C 19.9 °C 1019.5 hPa NNW 8.2 km/h   93% 0.25 mm -DZ
22:15 21.2 °C 20 °C 1019.5 hPa NNW 8.2 km/h   93% 0.25 mm -DZ
22:20 21.2 °C 20 °C 1019.5 hPa Calm   1.6 km/h 93% 0 mm -DZ
22:25 21.2 °C 20 °C 1019.5 hPa Calm     93% 0 mm -DZ
22:30 21.2 °C 20.1 °C 1019.5 hPa Calm   1.6 km/h 93% 0 mm -DZ
22:35 21.2 °C 20.1 °C 1019.9 hPa Calm     93% 0 mm -DZ
22:40 21.2 °C 20.1 °C 1019.9 hPa Calm   1.6 km/h 93% 0 mm -DZ
22:45 21.2 °C 20.1 °C 1019.5 hPa Calm     93% 0 mm -DZ
22:50 21.2 °C 20.1 °C 1019.5 hPa Calm     93% 0 mm -DZ
22:55 21.3 °C 20.1 °C 1019.5 hPa NNW 8.2 km/h   93% 0.25 mm -DZ
23:00 21.3 °C 20.1 °C 1019.5 hPa Calm     93% 0 mm -DZ
23:05 21.3 °C 20.1 °C 1019.5 hPa Calm   1.6 km/h 93% 0 mm -DZ
23:10 21.3 °C 20.1 °C 1019.5 hPa Calm   1.6 km/h 93% 0 mm -DZ
23:15 21.3 °C 20.1 °C 1019.5 hPa Calm   1.6 km/h 93% 0 mm -DZ
23:20 21.3 °C 20.1 °C 1019.2 hPa Calm   1.6 km/h 93% 0 mm -DZ
23:25 21.3 °C 20.1 °C 1019.2 hPa Calm     93% 0 mm -DZ
23:30 21.3 °C 20.1 °C 1019.2 hPa Calm     93% 0 mm -DZ
23:35 21.3 °C 20.1 °C 1019.2 hPa Calm   1.6 km/h 93% 0 mm -DZ
23:40 21.3 °C 20.3 °C 1018.8 hPa Calm   1.6 km/h 94% 0 mm -DZ
23:45 21.3 °C 20.3 °C 1019.2 hPa Calm   1.6 km/h 94% 0 mm -DZ
23:50 21.3 °C 20.3 °C 1018.8 hPa NNW 8.2 km/h   94% 0.25 mm -DZ
23:55 21.3 °C 20.3 °C 1018.8 hPa Calm   1.6 km/h 94% 0 mm -DZ
Piedmont Bend
Compliments of Weather Underground - 4 mb